Birch Creek GC
600 E Center St, Smithfield
Last Weather Update:12/30/2011 11:00:00 PM
Date
ETo
ETc
Rain
Irrigation
Req
Temp
Max
Temp
Min
Temp
Avg
Avg RH
Avg Wind
Avg Solar
inches
inches
incehs
inches
F
F
F
%
%
watts/m2
11/01/2011 0.06" 0.00" 0.15" -0.12" 44.8° 27.6° 36.6° 56.5% 4.7 MPH 110.2w/m2
11/02/2011 0.06" 0.00" 0.00" 0.00" 44.5° 20.7° 31.4° 65.5% 3.3 MPH 157.9w/m2
11/03/2011 0.06" 0.00" 0.00" 0.00" 49.0° 23.1° 34.0° 57.0% 3.5 MPH 144.0w/m2
11/04/2011 0.10" 0.00" 0.00" 0.00" 58.0° 30.2° 42.2° 97.5% 6.8 MPH 110.1w/m2
11/05/2011 0.03" 0.00" 0.10" -0.08" 33.3° 26.2° 29.0° 69.7% 3.4 MPH 83.5w/m2
11/06/2011 0.05" 0.00" 0.01" -0.01" 41.2° 26.0° 32.5° 90.6% 3.5 MPH 108.7w/m2
11/07/2011 0.04" 0.00" 0.01" -0.01" 42.0° 24.0° 31.7° 84.3% 2.5 MPH 105.7w/m2
11/08/2011 0.05" 0.00" 0.00" 0.00" 40.1° 20.7° 28.8° 74.3% 2.9 MPH 142.4w/m2
11/09/2011 0.05" 0.00" 0.00" 0.00" 42.8° 17.9° 28.7° 63.1% 3.0 MPH 141.7w/m2
11/10/2011 0.05" 0.00" 0.00" 0.00" 48.9° 19.6° 31.9° 44.8% 3.1 MPH 141.5w/m2
11/11/2011 0.05" 0.00" 0.00" 0.00" 45.4° 21.8° 34.0° 45.4% 3.0 MPH 113.9w/m2
11/12/2011 0.03" 0.00" 0.18" -0.14" 46.5° 25.7° 34.6° 70.0% 6.6 MPH 34.1w/m2
11/13/2011 0.03" 0.00" 0.19" -0.15" 41.7° 25.9° 34.6° 47.2% 3.8 MPH 44.1w/m2
11/14/2011 0.08" 0.00" 0.00" 0.00" 49.7° 37.1° 42.4° 47.7% 5.5 MPH 106.8w/m2
11/15/2011 0.05" 0.00" 0.00" 0.00" 45.6° 31.3° 37.6° 53.9% 3.7 MPH 98.7w/m2
11/16/2011 0.05" 0.00" 0.00" 0.00" 40.9° 22.1° 31.7° 54.6% 3.2 MPH 123.5w/m2
11/17/2011 0.06" 0.00" 0.00" 0.00" 52.9° 29.6° 40.5° 29.1% 4.6 MPH 43.6w/m2
11/18/2011 0.03" 0.00" 0.08" -0.06" 53.1° 28.5° 34.9° 100.0% 3.4 MPH 16.0w/m2
11/19/2011 0.03" 0.00" 0.21" -0.17" 37.9° 13.4° 24.4° 88.7% 1.4 MPH 97.5w/m2
11/20/2011 0.01" 0.00" 0.00" 0.00" 26.3° 12.3° 19.3° 97.4% 2.0 MPH 69.2w/m2
11/21/2011 0.01" 0.00" 0.15" -0.12" 38.8° 22.2° 28.1° 100.0% 1.9 MPH 45.9w/m2
11/22/2011 0.03" 0.00" 0.01" -0.01" 44.1° 22.1° 31.2° 87.1% 1.6 MPH 97.4w/m2
11/23/2011 0.04" 0.00" 0.00" 0.00" 44.4° 25.4° 34.3° 64.4% 2.6 MPH 111.6w/m2
11/24/2011 0.06" 0.00" 0.00" 0.00" 53.4° 29.6° 42.1° 66.8% 4.5 MPH 80.2w/m2
11/25/2011 0.04" 0.00" 0.00" 0.00" 45.8° 25.1° 36.8° 56.3% 4.9 MPH 68.1w/m2
11/26/2011 0.04" 0.00" 0.00" 0.00" 36.5° 19.3° 26.7° 60.3% 2.9 MPH 120.6w/m2
11/27/2011 0.04" 0.00" 0.00" 0.00" 42.3° 19.3° 28.5° 70.7% 2.7 MPH 114.5w/m2
11/28/2011 0.02" 0.00" 0.00" 0.00" 40.8° 24.6° 31.3° 90.8% 2.7 MPH 66.8w/m2
11/29/2011 0.04" 0.00" 0.00" 0.00" 44.8° 25.5° 33.6° 77.4% 2.8 MPH 110.8w/m2
11/30/2011 0.02" 0.00" 0.01" -0.01" 39.5° 27.3° 33.0° 66.4% 4.2 MPH 31.0w/m2
Totals: 1.30" 0.00" 1.10" -0.88" 58.0° 12.3° 32.9° 69.3% 3.5 MPH 94.7w/m2